Time;durP1;ratioP1;P1;durP2;ratioP2;P2;SDS_P1;SDS_P2;PMS_P1;PMS_P2;Temp;Humidity;BMP_temperature;BMP_pressure;BME280_temperature;BME280_humidity;BME280_pressure;Samples;Min_cycle;Max_cycle;Signal;HPM_P1;HPM_P2
2023/11/30 00:00:20;;;;;;;31.73;19.10;;;7.00;97.10;;;;;;5077992;28;20259;-81
2023/11/30 00:02:47;;;;;;;29.67;19.43;;;7.00;97.10;;;;;;5067297;28;20630;-80
2023/11/30 00:05:14;;;;;;;28.07;20.00;;;7.00;97.10;;;;;;5099433;28;20629;-80
2023/11/30 00:07:41;;;;;;;31.20;21.30;;;7.00;97.20;;;;;;5060206;28;20209;-80
2023/11/30 00:10:10;;;;;;;26.47;18.93;;;7.00;97.20;;;;;;5077238;28;20209;-81
2023/11/30 00:12:37;;;;;;;26.77;18.50;;;7.00;97.10;;;;;;5076624;28;20251;-79
2023/11/30 00:15:05;;;;;;;26.00;19.33;;;7.00;97.10;;;;;;5071127;28;20587;-80
2023/11/30 00:17:33;;;;;;;30.73;19.87;;;7.00;97.20;;;;;;5061260;28;20281;-80
2023/11/30 00:19:59;;;;;;;27.37;19.10;;;7.00;97.10;;;;;;5086677;28;20203;-79
2023/11/30 00:22:27;;;;;;;25.10;18.37;;;6.90;97.00;;;;;;5076579;28;20198;-80
2023/11/30 00:24:54;;;;;;;22.63;17.03;;;7.00;97.10;;;;;;5069428;28;20524;-79
2023/11/30 00:27:21;;;;;;;22.43;17.07;;;6.90;97.10;;;;;;5073549;28;20202;-80
2023/11/30 00:29:49;;;;;;;24.47;17.80;;;6.90;97.10;;;;;;5050102;28;20543;-80
2023/11/30 00:32:16;;;;;;;27.53;17.50;;;6.90;97.10;;;;;;5061109;28;20283;-80
2023/11/30 00:34:44;;;;;;;23.77;16.73;;;7.00;97.10;;;;;;5060278;28;20208;-80
2023/11/30 00:37:11;;;;;;;22.53;15.70;;;7.00;97.10;;;;;;5070162;28;20218;-82
2023/11/30 00:39:38;;;;;;;24.83;15.73;;;6.90;97.20;;;;;;5083295;28;20240;-82
2023/11/30 00:42:05;;;;;;;21.07;15.03;;;6.90;97.20;;;;;;5068405;28;20231;-80
2023/11/30 00:44:33;;;;;;;25.30;16.50;;;7.00;97.20;;;;;;5061132;28;20304;-80
2023/11/30 00:47:00;;;;;;;23.30;15.57;;;7.00;97.20;;;;;;5061336;28;20200;-79
2023/11/30 00:49:28;;;;;;;20.27;14.03;;;7.00;97.20;;;;;;5057241;28;20544;-81
2023/11/30 00:51:56;;;;;;;24.40;16.20;;;7.00;97.10;;;;;;5073284;28;20708;-80
2023/11/30 00:54:23;;;;;;;23.07;14.83;;;7.00;97.00;;;;;;5059604;28;20193;-80
2023/11/30 00:56:50;;;;;;;23.20;12.63;;;7.00;97.30;;;;;;5058913;28;20202;-80
2023/11/30 00:59:18;;;;;;;21.47;13.40;;;7.00;97.00;;;;;;5058666;28;20649;-80
2023/11/30 01:01:46;;;;;;;17.17;12.37;;;7.00;97.00;;;;;;5080693;28;20285;-79
2023/11/30 01:04:14;;;;;;;15.50;11.43;;;7.00;96.90;;;;;;5066983;28;20220;-80
2023/11/30 01:06:41;;;;;;;14.90;10.47;;;7.00;96.70;;;;;;5063585;28;20625;-80
2023/11/30 01:09:09;;;;;;;18.00;10.27;;;7.00;96.60;;;;;;5061761;28;20229;-80
2023/11/30 01:11:43;;;;;;;13.87;9.93;;;6.90;96.40;;;;;;5070254;28;20224;-80
2023/11/30 01:14:10;;;;;;;15.30;10.47;;;6.90;96.30;;;;;;5066671;28;20201;-80
2023/11/30 01:16:38;;;;;;;13.40;9.97;;;6.90;96.20;;;;;;5082840;28;20186;-81
2023/11/30 01:19:06;;;;;;;12.77;9.23;;;6.90;96.20;;;;;;5059901;28;20300;-81
2023/11/30 01:21:34;;;;;;;12.77;9.63;;;6.90;96.00;;;;;;5063116;28;20208;-79
2023/11/30 01:24:01;;;;;;;14.67;9.90;;;6.90;95.80;;;;;;5059909;28;20288;-80
2023/11/30 01:26:28;;;;;;;14.83;9.03;;;6.90;95.20;;;;;;5053885;28;20210;-80
2023/11/30 01:28:57;;;;;;;15.83;9.73;;;6.90;95.20;;;;;;5074438;28;20221;-80
2023/11/30 01:31:25;;;;;;;16.50;9.30;;;6.90;95.30;;;;;;5056193;28;20281;-81
2023/11/30 01:33:54;;;;;;;15.80;9.47;;;6.90;95.30;;;;;;5080869;28;20193;-80
2023/11/30 01:36:22;;;;;;;16.70;9.50;;;6.90;95.30;;;;;;5073352;28;20220;-80
2023/11/30 01:38:58;;;;;;;11.73;9.37;;;6.90;95.20;;;;;;5067201;28;20228;-80
2023/11/30 01:41:26;;;;;;;12.03;9.00;;;7.00;95.00;;;;;;5068913;28;20217;-80
2023/11/30 01:43:53;;;;;;;10.27;8.43;;;7.00;94.90;;;;;;5056297;28;20310;-80
2023/11/30 01:46:21;;;;;;;16.57;9.80;;;7.00;94.90;;;;;;5066342;28;20635;-81
2023/11/30 01:48:48;;;;;;;13.23;9.67;;;7.00;94.90;;;;;;5068274;28;20641;-80
2023/11/30 01:51:15;;;;;;;15.10;9.67;;;7.00;95.00;;;;;;5053995;28;20231;-80
2023/11/30 01:53:43;;;;;;;14.07;9.40;;;7.10;95.00;;;;;;5056841;28;20203;-80
2023/11/30 01:56:12;;;;;;;13.53;9.80;;;7.10;94.90;;;;;;5060843;28;20209;-80
2023/11/30 01:58:40;;;;;;;16.10;9.67;;;7.10;94.90;;;;;;5067927;28;20555;-80
2023/11/30 02:01:09;;;;;;;16.03;9.33;;;7.00;94.70;;;;;;5051309;28;20217;-80
2023/11/30 02:03:37;;;;;;;15.23;9.40;;;7.10;94.30;;;;;;5068389;28;20198;-80
2023/11/30 02:06:05;;;;;;;12.77;9.00;;;7.00;93.90;;;;;;5062519;28;20217;-81
2023/11/30 02:08:32;;;;;;;14.47;9.43;;;7.10;93.80;;;;;;5075584;28;20214;-80
2023/11/30 02:10:59;;;;;;;16.07;9.80;;;7.10;93.60;;;;;;5051872;28;20225;-80
2023/11/30 02:13:26;;;;;;;13.20;8.77;;;7.10;93.50;;;;;;5053294;28;20372;-80
2023/11/30 02:15:54;;;;;;;15.77;10.20;;;7.10;93.50;;;;;;5074885;28;20687;-80
2023/11/30 02:18:21;;;;;;;14.63;9.77;;;7.10;93.60;;;;;;5074221;28;20209;-79
2023/11/30 02:20:49;;;;;;;13.57;9.63;;;7.10;93.60;;;;;;5050179;28;20195;-80
2023/11/30 02:23:16;;;;;;;12.70;9.77;;;7.10;93.10;;;;;;5046306;28;20197;-79
2023/11/30 02:25:43;;;;;;;11.50;8.93;;;7.10;93.00;;;;;;5073432;28;20195;-80
2023/11/30 02:28:16;;;;;;;14.93;9.67;;;7.00;93.00;;;;;;5052066;28;20217;-80
2023/11/30 02:30:46;;;;;;;15.93;10.43;;;7.00;93.20;;;;;;5072532;28;20238;-80
2023/11/30 02:33:14;;;;;;;17.40;9.73;;;7.00;93.40;;;;;;5077032;28;20236;-80
2023/11/30 02:35:42;;;;;;;17.20;9.73;;;7.00;93.40;;;;;;5085379;28;20658;-80
2023/11/30 02:38:10;;;;;;;13.33;9.43;;;7.00;93.10;;;;;;5079365;28;20226;-80
2023/11/30 02:40:38;;;;;;;13.27;9.57;;;7.00;93.10;;;;;;5066180;28;20198;-80
2023/11/30 02:43:06;;;;;;;13.47;10.07;;;7.00;93.20;;;;;;5070870;28;20206;-80
2023/11/30 02:45:33;;;;;;;14.27;9.73;;;7.00;93.30;;;;;;5049154;28;20258;-80
2023/11/30 02:48:02;;;;;;;18.67;10.80;;;6.90;93.50;;;;;;5073617;28;20220;-80
2023/11/30 02:50:30;;;;;;;14.20;9.87;;;6.90;93.60;;;;;;5058082;28;20197;-79
2023/11/30 02:52:58;;;;;;;16.17;10.10;;;6.90;93.60;;;;;;5047816;28;20238;-80
2023/11/30 02:55:26;;;;;;;12.57;9.13;;;6.90;93.70;;;;;;5052349;28;20623;-80
2023/11/30 02:57:54;;;;;;;13.90;9.80;;;6.90;93.70;;;;;;5058872;28;20206;-80
2023/11/30 03:00:21;;;;;;;13.73;9.10;;;6.90;93.70;;;;;;5069826;28;20710;-80
2023/11/30 03:02:49;;;;;;;15.60;9.97;;;6.90;93.70;;;;;;5062220;28;20240;-79
2023/11/30 03:05:17;;;;;;;13.63;10.33;;;6.90;93.80;;;;;;5067390;28;20195;-79
2023/11/30 03:07:44;;;;;;;15.00;9.70;;;7.00;93.80;;;;;;5067286;28;20222;-79
2023/11/30 03:10:12;;;;;;;15.90;10.73;;;7.00;93.70;;;;;;5064071;28;20221;-80
2023/11/30 03:12:39;;;;;;;18.87;9.83;;;7.00;93.70;;;;;;5073313;28;20218;-80
2023/11/30 03:15:07;;;;;;;16.17;9.30;;;7.00;93.60;;;;;;5058091;28;20287;-80
2023/11/30 03:17:35;;;;;;;14.17;9.73;;;7.00;93.50;;;;;;5067619;28;20206;-80
2023/11/30 03:20:02;;;;;;;14.77;9.33;;;7.00;93.50;;;;;;5074039;28;20670;-80
2023/11/30 03:22:29;;;;;;;16.77;9.10;;;7.00;93.50;;;;;;5069764;28;20579;-80
2023/11/30 03:24:56;;;;;;;13.27;9.67;;;7.00;93.30;;;;;;5061014;28;20198;-80
2023/11/30 03:27:23;;;;;;;13.87;8.97;;;7.00;93.30;;;;;;5052740;28;20198;-80
2023/11/30 03:29:50;;;;;;;13.63;9.63;;;7.00;93.40;;;;;;5052544;28;20217;-80
2023/11/30 03:32:17;;;;;;;13.27;9.37;;;7.00;93.50;;;;;;5082478;28;20235;-80
2023/11/30 03:34:45;;;;;;;14.03;9.93;;;7.00;93.50;;;;;;5077619;28;20193;-80
2023/11/30 03:37:12;;;;;;;11.97;8.57;;;7.00;93.50;;;;;;5062883;28;20197;-80
2023/11/30 03:39:39;;;;;;;14.47;9.20;;;7.00;93.50;;;;;;5064316;28;20660;-81
2023/11/30 03:42:07;;;;;;;14.07;9.63;;;7.00;93.40;;;;;;5076610;28;20287;-81
2023/11/30 03:44:34;;;;;;;14.40;9.30;;;7.00;93.30;;;;;;5089509;28;20206;-80
2023/11/30 03:47:01;;;;;;;14.63;9.93;;;7.00;93.30;;;;;;5062606;28;20274;-81
2023/11/30 03:49:28;;;;;;;13.70;9.43;;;7.00;93.20;;;;;;5063724;28;20234;-81
2023/11/30 03:51:56;;;;;;;12.23;9.20;;;7.00;93.20;;;;;;5076738;28;20552;-80
2023/11/30 03:54:23;;;;;;;15.70;10.00;;;7.00;93.30;;;;;;5059308;28;20511;-80
2023/11/30 03:56:51;;;;;;;14.53;8.77;;;7.00;93.40;;;;;;5075284;28;20571;-80
2023/11/30 03:59:20;;;;;;;11.07;8.73;;;7.00;93.50;;;;;;5062691;28;20658;-81
2023/11/30 04:01:48;;;;;;;15.20;9.73;;;7.00;93.60;;;;;;5074502;28;20206;-80
2023/11/30 04:04:15;;;;;;;11.27;8.93;;;7.00;93.70;;;;;;5073239;28;20205;-80
2023/11/30 04:06:42;;;;;;;11.27;9.17;;;7.00;93.70;;;;;;5068743;28;20201;-81
2023/11/30 04:09:10;;;;;;;14.60;9.87;;;7.10;93.80;;;;;;5055669;28;20701;-81
2023/11/30 04:11:37;;;;;;;10.80;8.87;;;7.10;93.70;;;;;;5079695;28;20741;-80
2023/11/30 04:14:05;;;;;;;12.50;8.83;;;7.10;93.40;;;;;;5052830;28;20201;-81
2023/11/30 04:16:34;;;;;;;11.50;8.33;;;7.10;93.40;;;;;;5079421;28;20220;-80
2023/11/30 04:19:01;;;;;;;12.17;9.17;;;7.10;93.70;;;;;;5076546;28;20219;-80
2023/11/30 04:21:29;;;;;;;12.80;8.97;;;7.00;93.50;;;;;;5073332;28;20651;-81
2023/11/30 04:23:56;;;;;;;11.87;8.37;;;7.00;93.50;;;;;;5053427;28;20196;-80
2023/11/30 04:26:25;;;;;;;10.57;8.17;;;7.00;93.50;;;;;;5072335;28;20197;-80
2023/11/30 04:28:53;;;;;;;12.67;9.20;;;7.00;93.60;;;;;;5056417;28;20209;-80
2023/11/30 04:31:20;;;;;;;14.77;9.63;;;7.00;93.70;;;;;;5060855;28;20251;-80
2023/11/30 04:33:57;;;;;;;11.20;9.53;;;7.00;93.80;;;;;;5060153;28;20209;-80
2023/11/30 04:40:13;;;;;;;11.40;8.90;;;7.00;94.20;;;;;;5061131;28;20225;-81
2023/11/30 04:43:47;;;;;;;;;;;;;;;;;;;;;
2023/11/30 04:46:22;;;;;;;13.53;9.93;;;6.90;94.30;;;;;;5070759;28;20209;-80
2023/11/30 04:48:54;;;;;;;13.23;9.40;;;6.90;94.40;;;;;;5062784;28;20209;-79
2023/11/30 04:51:23;;;;;;;11.97;9.53;;;6.90;94.50;;;;;;5060613;28;20300;-80
2023/11/30 04:53:53;;;;;;;11.80;9.50;;;6.90;94.60;;;;;;5063317;28;20209;-79
2023/11/30 04:56:21;;;;;;;14.17;9.57;;;6.80;94.70;;;;;;5072872;28;20599;-80
2023/11/30 04:58:54;;;;;;;11.93;9.10;;;6.90;94.90;;;;;;5068657;28;20209;-80
2023/11/30 05:01:25;;;;;;;10.37;9.00;;;6.80;94.90;;;;;;5069087;28;20194;-80
2023/11/30 05:03:56;;;;;;;10.77;8.87;;;6.90;95.00;;;;;;5074156;28;20217;-80
2023/11/30 05:06:35;;;;;;;11.90;9.40;;;6.90;95.10;;;;;;5059368;28;20259;-80
2023/11/30 05:09:06;;;;;;;14.70;9.50;;;6.80;95.20;;;;;;5056084;28;20200;-80
2023/11/30 05:11:35;;;;;;;13.30;9.23;;;6.80;95.30;;;;;;5058727;28;20204;-79
2023/11/30 05:14:04;;;;;;;10.80;9.17;;;6.90;95.30;;;;;;5054980;28;20297;-80
2023/11/30 05:17:37;;;;;;;11.80;9.30;;;6.80;95.20;;;;;;5082597;28;20203;-80
2023/11/30 05:20:45;;;;;;;13.23;9.20;;;6.80;95.20;;;;;;5069737;28;20205;-80
2023/11/30 05:23:15;;;;;;;12.40;9.00;;;6.90;95.20;;;;;;5081001;28;20200;-80
2023/11/30 05:25:50;;;;;;;11.80;9.43;;;6.80;95.40;;;;;;5075007;28;20216;-80
2023/11/30 05:28:17;;;;;;;13.03;9.00;;;6.80;95.40;;;;;;5068130;28;20545;-81
2023/11/30 05:30:45;;;;;;;13.43;9.80;;;6.80;95.40;;;;;;5087230;28;20693;-80
2023/11/30 05:33:15;;;;;;;12.90;9.50;;;6.80;95.30;;;;;;5057379;28;20218;-80
2023/11/30 05:35:46;;;;;;;11.03;9.50;;;6.80;95.30;;;;;;5074735;28;20194;-80
2023/11/30 05:50:50;;;;;;;14.87;10.87;;;6.60;95.70;;;;;;4828991;29;20301;-80
2023/11/30 05:58:37;;;;;;;13.93;9.93;;;6.60;96.10;;;;;;4894221;29;20204;-80
2023/11/30 06:01:28;;;;;;;15.70;10.90;;;6.60;96.20;;;;;;4937239;28;20224;-79
2023/11/30 06:07:02;;;;;;;15.23;10.50;;;6.60;96.40;;;;;;4979906;28;20197;-80
2023/11/30 06:09:44;;;;;;;12.33;9.50;;;6.60;96.50;;;;;;4978231;28;20350;-80
2023/11/30 06:12:16;;;;;;;12.67;9.00;;;6.60;96.50;;;;;;4964427;28;20311;-81
2023/11/30 06:14:51;;;;;;;14.47;10.13;;;6.60;96.60;;;;;;4997643;28;20196;-80
2023/11/30 06:30:56;;;;;;;11.77;10.03;;;6.70;96.70;;;;;;5005081;28;20234;-80
2023/11/30 06:38:15;;;;;;;14.13;9.00;;;6.70;96.70;;;;;;5084974;28;20555;-80
2023/11/30 06:53:32;;;;;;;11.13;9.03;;;6.80;96.80;;;;;;4973432;28;20247;-79
2023/11/30 07:09:30;;;;;;;13.50;8.97;;;6.70;96.50;;;;;;4949118;28;20203;-81
2023/11/30 07:25:47;;;;;;;;;;;;;;;;;;;;;
2023/11/30 07:29:53;;;;;;;;;;;;;;;;;;;;;
2023/11/30 07:33:28;;;;;;;15.20;10.33;;;6.70;97.10;;;;;;4961076;28;20328;-81
2023/11/30 07:37:05;;;;;;;13.57;10.03;;;6.70;97.20;;;;;;4998469;28;20279;-81
2023/11/30 07:40:22;;;;;;;11.47;8.60;;;6.80;97.20;;;;;;4960504;28;20231;-81
2023/11/30 07:44:41;;;;;;;;;;;;;;;;;;;;;
2023/11/30 07:47:57;;;;;;;12.80;9.50;;;6.80;97.10;;;;;;4968651;28;20248;-82
2023/11/30 08:05:19;;;;;;;12.73;8.83;;;6.70;96.70;;;;;;4830274;29;20206;-81
2023/11/30 08:13:05;;;;;;;8.83;7.93;;;6.80;96.90;;;;;;4857982;29;20248;-81
2023/11/30 08:16:10;;;;;;;10.67;8.47;;;6.80;97.00;;;;;;4905038;29;20221;-81
2023/11/30 08:19:52;;;;;;;13.40;8.90;;;6.80;97.00;;;;;;4926881;29;20219;-81
2023/11/30 08:24:18;;;;;;;;;;;;;;;;;;;;;
2023/11/30 09:29:32;;;;;;;13.30;9.50;;;6.90;98.30;;;;;;4862514;29;20220;-82
2023/11/30 09:50:01;;;;;;;;;;;;;;;;;;;;;
2023/11/30 09:54:02;;;;;;;;;;;;;;;;;;;;;
2023/11/30 10:32:37;;;;;;;13.57;11.40;;;6.70;99.10;;;;;;4843233;29;20281;-81
2023/11/30 10:40:43;;;;;;;15.20;11.87;;;6.80;99.40;;;;;;4889386;29;20917;-81
2023/11/30 10:58:16;;;;;;;15.00;11.60;;;7.00;99.70;;;;;;4905302;29;20215;-82
2023/11/30 11:10:08;;;;;;;12.40;10.90;;;6.90;99.50;;;;;;4849739;29;20557;-81
2023/11/30 11:13:24;;;;;;;17.43;11.97;;;6.90;99.60;;;;;;4846312;29;20245;-81
2023/11/30 11:50:51;;;;;;;17.83;14.17;;;7.10;99.90;;;;;;4975813;28;20285;-81
2023/11/30 12:01:47;;;;;;;20.43;14.17;;;7.20;99.90;;;;;;4960570;29;20293;-81
2023/11/30 12:04:31;;;;;;;17.87;14.33;;;7.30;99.90;;;;;;5147262;22;20306;-61
2023/11/30 12:06:59;;;;;;;20.03;15.60;;;7.30;99.90;;;;;;5087491;28;20276;-62
2023/11/30 12:09:26;;;;;;;21.93;15.20;;;7.30;99.90;;;;;;5077647;28;20213;-62
2023/11/30 12:11:56;;;;;;;20.80;15.20;;;7.40;99.90;;;;;;5069917;28;20198;-62
2023/11/30 12:14:22;;;;;;;19.70;13.80;;;7.40;99.90;;;;;;5070134;28;20212;-61
2023/11/30 12:16:50;;;;;;;19.77;14.73;;;7.30;99.90;;;;;;5086621;28;20228;-60
2023/11/30 12:19:19;;;;;;;21.77;15.63;;;7.40;99.90;;;;;;5067108;28;20200;-62
2023/11/30 12:21:47;;;;;;;17.57;14.47;;;7.40;99.90;;;;;;5086579;28;20255;-61
2023/11/30 12:24:14;;;;;;;18.87;15.10;;;7.40;99.90;;;;;;5075791;28;20216;-62
2023/11/30 12:26:41;;;;;;;18.13;14.67;;;7.40;99.90;;;;;;5071560;28;20300;-62
2023/11/30 12:29:11;;;;;;;19.17;14.77;;;7.40;99.90;;;;;;5067872;28;20236;-62
2023/11/30 12:31:38;;;;;;;19.43;14.83;;;7.40;99.90;;;;;;5085643;28;20196;-62
2023/11/30 12:34:06;;;;;;;19.17;14.63;;;7.40;99.90;;;;;;5066967;28;20227;-62
2023/11/30 12:36:33;;;;;;;16.50;12.83;;;7.50;99.90;;;;;;5084188;28;20591;-63
2023/11/30 12:39:00;;;;;;;19.20;13.77;;;7.50;99.90;;;;;;5086650;28;20217;-64
2023/11/30 12:41:27;;;;;;;17.87;14.27;;;7.40;99.90;;;;;;5088553;28;20200;-65
2023/11/30 12:43:54;;;;;;;20.70;15.50;;;7.40;99.90;;;;;;5088744;28;20205;-64
2023/11/30 12:46:21;;;;;;;18.20;14.40;;;7.50;99.90;;;;;;5086072;28;20614;-64
2023/11/30 12:48:48;;;;;;;17.37;14.47;;;7.50;99.90;;;;;;5085946;28;20242;-64
2023/11/30 12:51:15;;;;;;;18.30;14.70;;;7.50;99.80;;;;;;5086300;28;20209;-65
2023/11/30 12:53:42;;;;;;;20.17;15.03;;;7.50;99.80;;;;;;5084774;28;20217;-64
2023/11/30 12:56:09;;;;;;;18.60;13.83;;;7.50;99.80;;;;;;5085804;28;20204;-64
2023/11/30 12:58:37;;;;;;;20.03;14.67;;;7.50;99.80;;;;;;5090639;28;20612;-64
2023/11/30 13:01:05;;;;;;;20.47;14.67;;;7.50;99.80;;;;;;5087471;28;20632;-64
2023/11/30 13:03:32;;;;;;;21.17;15.13;;;7.50;99.80;;;;;;5083689;28;20305;-64
2023/11/30 13:05:59;;;;;;;19.57;14.53;;;7.60;99.80;;;;;;5085558;28;20288;-64
2023/11/30 13:08:26;;;;;;;20.53;15.30;;;7.60;99.80;;;;;;5086570;28;20198;-64
2023/11/30 13:10:55;;;;;;;22.00;15.60;;;7.60;99.70;;;;;;5061815;28;20205;-64
2023/11/30 13:13:22;;;;;;;17.60;14.13;;;7.60;99.60;;;;;;5090185;28;20222;-65
2023/11/30 13:16:07;;;;;;;16.87;11.93;;;7.60;99.50;;;;;;5081685;28;20194;-64
2023/11/30 13:18:34;;;;;;;17.70;13.03;;;7.60;99.50;;;;;;5081774;28;20284;-64
2023/11/30 13:21:01;;;;;;;20.90;13.33;;;7.60;99.30;;;;;;5084735;28;20193;-64
2023/11/30 13:23:28;;;;;;;19.77;13.07;;;7.50;99.10;;;;;;5081883;28;20206;-64
2023/11/30 13:25:55;;;;;;;16.60;12.83;;;7.50;99.10;;;;;;5083265;28;20518;-64
2023/11/30 13:28:22;;;;;;;18.90;13.40;;;7.50;99.10;;;;;;5080130;28;20214;-63
2023/11/30 13:30:50;;;;;;;17.60;12.27;;;7.50;99.30;;;;;;5085206;28;20263;-63
2023/11/30 13:33:17;;;;;;;17.77;13.20;;;7.50;99.40;;;;;;5085184;28;20215;-64
2023/11/30 13:35:46;;;;;;;16.60;12.80;;;7.50;99.40;;;;;;5085145;28;20276;-64
2023/11/30 13:38:13;;;;;;;19.37;13.37;;;7.50;99.50;;;;;;5084759;28;20195;-65
2023/11/30 13:40:40;;;;;;;15.63;12.40;;;7.50;99.40;;;;;;5083509;28;20194;-64
2023/11/30 13:43:07;;;;;;;15.10;11.80;;;7.50;99.40;;;;;;5064367;28;20215;-65
2023/11/30 13:45:34;;;;;;;17.40;12.70;;;7.50;99.40;;;;;;5087061;28;20207;-62
2023/11/30 13:48:01;;;;;;;19.67;12.80;;;7.60;99.50;;;;;;5087658;28;20258;-62
2023/11/30 13:50:28;;;;;;;16.07;12.57;;;7.60;99.50;;;;;;5078734;28;20202;-62
2023/11/30 13:53:10;;;;;;;15.07;12.53;;;7.60;99.50;;;;;;5083095;28;20214;-62
2023/11/30 13:55:38;;;;;;;14.63;12.17;;;7.60;99.50;;;;;;5084874;28;20664;-62
2023/11/30 13:58:08;;;;;;;16.60;12.23;;;7.60;99.50;;;;;;5085402;28;20206;-62
2023/11/30 14:00:36;;;;;;;16.60;11.77;;;7.60;99.50;;;;;;5082415;28;20206;-62
2023/11/30 14:03:03;;;;;;;19.97;12.07;;;7.60;99.50;;;;;;5086812;28;20264;-62
2023/11/30 14:05:30;;;;;;;17.63;13.67;;;7.60;99.50;;;;;;5081184;28;20208;-62
2023/11/30 14:07:57;;;;;;;14.87;12.27;;;7.60;99.40;;;;;;5083603;28;20290;-62
2023/11/30 14:10:27;;;;;;;19.77;12.73;;;7.60;99.20;;;;;;5083190;28;20290;-62
2023/11/30 14:12:54;;;;;;;15.57;12.17;;;7.60;99.10;;;;;;5082933;28;20210;-62
2023/11/30 14:15:21;;;;;;;14.57;12.40;;;7.60;98.90;;;;;;5085410;28;20205;-62
2023/11/30 14:17:49;;;;;;;13.70;11.77;;;7.60;98.90;;;;;;5081627;28;20209;-62
2023/11/30 14:20:16;;;;;;;14.37;11.43;;;7.50;98.80;;;;;;5081990;28;20193;-65
2023/11/30 14:22:44;;;;;;;14.63;10.60;;;7.50;98.80;;;;;;5085894;28;20254;-61
2023/11/30 14:25:12;;;;;;;15.97;12.00;;;7.50;98.90;;;;;;5083587;28;20541;-65
2023/11/30 14:27:39;;;;;;;14.93;11.90;;;7.50;98.80;;;;;;5078307;28;20193;-66
2023/11/30 14:30:10;;;;;;;18.53;12.57;;;7.50;98.70;;;;;;5082336;28;20311;-63
2023/11/30 14:32:39;;;;;;;15.90;12.50;;;7.50;98.80;;;;;;5078106;28;20583;-64
2023/11/30 14:35:08;;;;;;;15.93;12.40;;;7.50;98.90;;;;;;5086741;28;20307;-64
2023/11/30 14:37:34;;;;;;;14.90;13.03;;;7.40;99.00;;;;;;5086482;28;20190;-63
2023/11/30 14:40:03;;;;;;;15.93;13.10;;;7.50;99.00;;;;;;5078861;28;20228;-63
2023/11/30 14:42:31;;;;;;;18.37;13.37;;;7.40;99.00;;;;;;5081429;28;20194;-64
2023/11/30 14:44:58;;;;;;;16.87;12.30;;;7.40;99.00;;;;;;5083363;28;20617;-63
2023/11/30 14:47:26;;;;;;;13.77;12.27;;;7.40;99.10;;;;;;5084250;28;20195;-63
2023/11/30 14:49:53;;;;;;;17.13;12.77;;;7.40;99.10;;;;;;5083324;28;20202;-64
2023/11/30 14:52:20;;;;;;;17.03;11.83;;;7.40;99.00;;;;;;5084714;28;20259;-64
2023/11/30 14:54:51;;;;;;;16.93;12.47;;;7.40;98.90;;;;;;5083841;28;20210;-65
2023/11/30 14:57:19;;;;;;;17.23;11.60;;;7.40;99.00;;;;;;5085111;28;20263;-64
2023/11/30 14:59:47;;;;;;;15.27;12.07;;;7.40;99.10;;;;;;5081598;28;20621;-64
2023/11/30 15:02:14;;;;;;;14.90;11.90;;;7.40;99.10;;;;;;5084563;28;20923;-64
2023/11/30 15:04:41;;;;;;;14.13;11.33;;;7.40;99.20;;;;;;5088808;28;20201;-64
2023/11/30 15:07:08;;;;;;;15.43;11.63;;;7.40;99.20;;;;;;5097775;28;20204;-65
2023/11/30 15:09:35;;;;;;;17.23;12.00;;;7.40;99.30;;;;;;5100953;28;20208;-61
2023/11/30 15:12:04;;;;;;;15.63;12.13;;;7.40;99.30;;;;;;5101710;28;20197;-61
2023/11/30 15:14:31;;;;;;;15.80;12.17;;;7.40;99.20;;;;;;5084132;28;20381;-62
2023/11/30 15:16:58;;;;;;;18.37;12.20;;;7.40;99.30;;;;;;5101224;28;20264;-61
2023/11/30 15:19:25;;;;;;;14.73;12.17;;;7.40;99.30;;;;;;5085550;28;20189;-61
2023/11/30 15:21:52;;;;;;;15.03;11.60;;;7.50;99.30;;;;;;5099182;28;20202;-63
2023/11/30 15:24:20;;;;;;;13.27;10.93;;;7.40;99.20;;;;;;5101491;28;20217;-63
2023/11/30 15:26:47;;;;;;;14.23;11.53;;;7.50;99.20;;;;;;5103727;28;20198;-63
2023/11/30 15:29:14;;;;;;;13.70;10.77;;;7.40;99.10;;;;;;5108505;28;20537;-63
2023/11/30 15:31:42;;;;;;;15.57;11.17;;;7.40;99.10;;;;;;5108534;28;20196;-62
2023/11/30 15:34:09;;;;;;;13.27;11.27;;;7.40;99.20;;;;;;5105275;28;20510;-62
2023/11/30 15:36:36;;;;;;;17.47;12.57;;;7.40;99.10;;;;;;5109716;28;20200;-62
2023/11/30 15:39:11;;;;;;;16.33;12.37;;;7.40;99.10;;;;;;5106275;28;20207;-62
2023/11/30 15:41:46;;;;;;;15.07;12.00;;;7.40;99.10;;;;;;5104960;28;20193;-62
2023/11/30 15:44:13;;;;;;;14.83;12.17;;;7.40;99.10;;;;;;5107087;28;20863;-62
2023/11/30 15:46:43;;;;;;;15.20;12.57;;;7.40;99.10;;;;;;5108079;28;20292;-63
2023/11/30 15:49:11;;;;;;;16.90;12.50;;;7.50;99.20;;;;;;5111211;28;20572;-62
2023/11/30 15:51:42;;;;;;;15.00;12.20;;;7.50;99.20;;;;;;5106203;28;20205;-62
2023/11/30 15:54:10;;;;;;;13.93;12.13;;;7.50;99.20;;;;;;5093950;28;20956;-63
2023/11/30 15:56:37;;;;;;;17.47;13.03;;;7.40;99.20;;;;;;5105211;28;20288;-62
2023/11/30 15:59:04;;;;;;;13.93;12.23;;;7.40;99.20;;;;;;5106206;28;20208;-62
2023/11/30 16:01:31;;;;;;;16.47;13.77;;;7.50;99.20;;;;;;5107610;28;20218;-62
2023/11/30 16:03:59;;;;;;;18.83;13.17;;;7.50;99.20;;;;;;5092528;28;20237;-63
2023/11/30 16:06:26;;;;;;;16.20;13.07;;;7.50;99.20;;;;;;5087833;28;20197;-62
2023/11/30 16:08:54;;;;;;;17.03;12.90;;;7.50;99.20;;;;;;5088387;28;20214;-63
2023/11/30 16:11:21;;;;;;;17.40;13.57;;;7.50;99.20;;;;;;5081891;28;20227;-63
2023/11/30 16:13:48;;;;;;;17.47;13.70;;;7.40;99.20;;;;;;5081526;28;20222;-62
2023/11/30 16:16:15;;;;;;;17.47;14.10;;;7.50;99.30;;;;;;5071373;28;20206;-62
2023/11/30 16:18:42;;;;;;;16.20;13.20;;;7.40;99.30;;;;;;5084780;28;20220;-62
2023/11/30 16:21:17;;;;;;;15.03;12.73;;;7.40;99.30;;;;;;5084579;28;20189;-62
2023/11/30 16:23:45;;;;;;;16.30;13.97;;;7.50;99.30;;;;;;5085300;28;20202;-62
2023/11/30 16:26:20;;;;;;;15.47;12.63;;;7.50;99.30;;;;;;5086982;28;20205;-63
2023/11/30 16:28:48;;;;;;;17.63;12.77;;;7.50;99.30;;;;;;5088612;28;20229;-64
2023/11/30 16:31:16;;;;;;;16.80;12.53;;;7.50;99.30;;;;;;5088190;28;20232;-63
2023/11/30 16:33:43;;;;;;;19.73;13.27;;;7.50;99.20;;;;;;5084444;28;20605;-62
2023/11/30 16:36:11;;;;;;;16.60;12.30;;;7.50;99.20;;;;;;5087432;28;20197;-62
2023/11/30 16:38:38;;;;;;;15.63;13.10;;;7.50;99.20;;;;;;5086994;28;20209;-63
2023/11/30 16:41:06;;;;;;;17.20;13.20;;;7.50;99.20;;;;;;5087805;28;20209;-62
2023/11/30 16:43:35;;;;;;;18.47;14.60;;;7.50;99.20;;;;;;5080676;28;20195;-62
2023/11/30 16:46:04;;;;;;;18.53;14.80;;;7.50;99.20;;;;;;5084304;28;20258;-62
2023/11/30 16:48:31;;;;;;;16.60;13.30;;;7.40;99.10;;;;;;5085806;28;20294;-62
2023/11/30 16:50:59;;;;;;;22.53;16.30;;;7.40;99.10;;;;;;5085524;28;20697;-62
2023/11/30 16:53:26;;;;;;;19.57;15.33;;;7.40;99.10;;;;;;5084682;28;20221;-63
2023/11/30 16:55:55;;;;;;;21.40;15.70;;;7.40;99.10;;;;;;5084301;28;20190;-63
2023/11/30 16:58:22;;;;;;;19.63;15.33;;;7.40;99.10;;;;;;5086226;28;20208;-62
2023/11/30 17:00:49;;;;;;;20.20;16.33;;;7.40;99.10;;;;;;5072941;28;20193;-63
2023/11/30 17:03:16;;;;;;;18.37;14.77;;;7.40;99.00;;;;;;5085676;28;20260;-63
2023/11/30 17:05:43;;;;;;;19.57;15.23;;;7.30;99.00;;;;;;5085420;28;20205;-62
2023/11/30 17:08:10;;;;;;;18.73;14.60;;;7.40;99.00;;;;;;5084882;28;20233;-63
2023/11/30 17:10:38;;;;;;;18.67;14.60;;;7.40;98.90;;;;;;5070646;28;20205;-63
2023/11/30 17:13:07;;;;;;;19.63;14.27;;;7.40;98.90;;;;;;5067568;28;20263;-63
2023/11/30 17:15:34;;;;;;;19.80;16.17;;;7.30;98.70;;;;;;5087139;28;20255;-62
2023/11/30 17:18:01;;;;;;;21.63;15.43;;;7.30;98.80;;;;;;5080029;28;20190;-62
2023/11/30 17:20:28;;;;;;;24.03;17.03;;;7.30;98.80;;;;;;5067037;28;20201;-62
2023/11/30 17:22:55;;;;;;;25.83;16.07;;;7.30;98.90;;;;;;5080554;28;20280;-63
2023/11/30 17:25:22;;;;;;;22.77;16.67;;;7.30;99.00;;;;;;5081991;28;20286;-63
2023/11/30 17:27:50;;;;;;;23.03;17.00;;;7.30;99.00;;;;;;5087834;28;20190;-62
2023/11/30 17:30:17;;;;;;;22.83;16.40;;;7.30;99.10;;;;;;5085243;28;20534;-62
2023/11/30 17:32:44;;;;;;;19.40;15.53;;;7.30;99.10;;;;;;5077927;28;20202;-62
2023/11/30 17:35:12;;;;;;;21.20;16.87;;;7.30;99.10;;;;;;5078894;28;20229;-62
2023/11/30 17:37:39;;;;;;;20.03;15.57;;;7.30;99.10;;;;;;5066788;28;20197;-63
2023/11/30 17:40:10;;;;;;;21.00;16.67;;;7.30;99.20;;;;;;5069549;28;20209;-62
2023/11/30 17:42:37;;;;;;;22.17;15.73;;;7.30;99.20;;;;;;5090293;28;20232;-62
2023/11/30 17:45:05;;;;;;;20.03;14.70;;;7.30;99.20;;;;;;5083143;28;20280;-63
2023/11/30 17:47:33;;;;;;;19.23;14.97;;;7.30;99.20;;;;;;5085914;28;20281;-63
2023/11/30 17:50:00;;;;;;;20.00;15.07;;;7.30;99.20;;;;;;5083564;28;20231;-62
2023/11/30 17:52:30;;;;;;;18.20;15.60;;;7.30;99.30;;;;;;5073771;28;20631;-63
2023/11/30 17:54:57;;;;;;;22.60;16.47;;;7.40;99.30;;;;;;5083303;28;20266;-63
2023/11/30 17:57:24;;;;;;;21.33;16.50;;;7.40;99.30;;;;;;5081697;28;20213;-63
2023/11/30 17:59:52;;;;;;;24.57;16.47;;;7.40;99.20;;;;;;5085034;28;20216;-62
2023/11/30 18:02:24;;;;;;;22.53;17.30;;;7.40;99.20;;;;;;5084624;28;20196;-63